createdAt,value
2022-08-20T00:01:39.856Z,73.41
2022-08-20T00:06:09.596Z,73.49
2022-08-20T00:10:22.990Z,73.55
2022-08-20T00:14:35.709Z,73.34
2022-08-20T00:18:48.568Z,73.74
2022-08-20T00:23:00.289Z,73.80
2022-08-20T00:27:11.821Z,73.94
2022-08-20T00:31:24.361Z,74.50
2022-08-20T00:35:40.074Z,74.48
2022-08-20T00:39:51.648Z,74.71
2022-08-20T00:44:12.254Z,74.41
2022-08-20T00:48:26.541Z,74.35
2022-08-20T00:52:41.866Z,74.48
2022-08-20T00:57:08.583Z,74.67
2022-08-20T01:01:22.822Z,74.78
2022-08-20T01:05:34.824Z,74.93
2022-08-20T01:09:57.944Z,75.02
2022-08-20T01:14:32.088Z,75.90
2022-08-20T01:18:46.351Z,75.69
2022-08-20T01:23:30.470Z,75.97
2022-08-20T01:27:44.329Z,76.39
2022-08-20T01:32:01.337Z,76.12
2022-08-20T01:36:15.493Z,76.36
2022-08-20T01:40:56.215Z,76.29
2022-08-20T01:45:08.086Z,76.47
2022-08-20T01:49:25.912Z,76.73
2022-08-20T01:53:41.648Z,76.82
2022-08-20T01:57:53.860Z,76.93
2022-08-20T02:02:06.920Z,77.45
2022-08-20T02:06:18.661Z,77.83
2022-08-20T02:10:31.754Z,77.39
2022-08-20T02:14:47.551Z,77.23
2022-08-20T02:19:04.094Z,77.58
2022-08-20T02:23:16.211Z,77.60
2022-08-20T02:27:27.825Z,77.81
2022-08-20T02:32:24.254Z,77.76
2022-08-20T02:36:18.553Z,78.08
2022-08-20T02:40:31.554Z,77.71
2022-08-20T02:44:43.496Z,77.94
2022-08-20T02:48:55.755Z,77.76
2022-08-20T02:53:07.549Z,78.08
2022-08-20T02:57:20.422Z,77.50
2022-08-20T03:01:31.995Z,77.49
2022-08-20T03:05:44.527Z,77.50
2022-08-20T03:09:56.121Z,77.52
2022-08-20T03:14:07.644Z,77.06
2022-08-20T03:18:20.166Z,77.54
2022-08-20T03:22:31.801Z,77.11
2022-08-20T03:26:43.364Z,77.05
2022-08-20T03:30:56.453Z,77.22
2022-08-20T03:35:11.600Z,77.71
2022-08-20T03:39:23.126Z,77.82
2022-08-20T03:43:35.468Z,77.94
2022-08-20T03:47:48.005Z,77.88
2022-08-20T03:52:01.241Z,78.11
2022-08-20T03:56:12.777Z,78.58
2022-08-20T04:00:39.426Z,78.32
2022-08-20T04:04:51.214Z,77.93
2022-08-20T04:09:02.746Z,78.49
2022-08-20T04:13:17.121Z,78.64
2022-08-20T04:17:29.303Z,78.46
2022-08-20T04:21:40.901Z,78.51
2022-08-20T04:25:52.468Z,78.95
2022-08-20T04:30:11.089Z,79.01
2022-08-20T04:34:22.626Z,79.45
2022-08-20T04:38:48.247Z,79.87
2022-08-20T04:43:04.690Z,79.89
2022-08-20T04:47:25.383Z,79.42
2022-08-20T04:51:46.377Z,79.27
2022-08-20T04:56:00.206Z,80.22
2022-08-20T05:00:16.104Z,80.25
2022-08-20T05:04:27.680Z,80.05
2022-08-20T05:08:40.096Z,79.39
2022-08-20T05:12:55.638Z,78.88
2022-08-20T05:17:09.150Z,78.96
2022-08-20T05:21:21.529Z,78.59
2022-08-20T05:25:33.359Z,78.42
2022-08-20T05:29:45.015Z,78.06
2022-08-20T05:34:10.454Z,78.26
2022-08-20T05:38:26.927Z,78.07
2022-08-20T05:42:38.993Z,77.79
2022-08-20T05:46:51.922Z,77.26
2022-08-20T05:51:03.509Z,77.41
2022-08-20T05:55:15.134Z,77.53
2022-08-20T05:59:27.523Z,78.01
2022-08-20T06:03:57.473Z,78.16
2022-08-20T06:08:10.159Z,78.72
2022-08-20T06:12:21.735Z,78.98
2022-08-20T06:16:33.379Z,78.71
2022-08-20T06:20:45.910Z,78.37
2022-08-20T06:24:57.501Z,77.92
2022-08-20T06:29:09.077Z,77.59
2022-08-20T06:33:20.588Z,77.50
2022-08-20T06:37:36.379Z,76.83
2022-08-20T06:41:48.034Z,76.31
2022-08-20T06:46:00.511Z,75.23
2022-08-20T06:50:16.039Z,72.27
2022-08-20T06:54:29.385Z,70.67
2022-08-20T06:58:41.337Z,70.33
2022-08-20T07:02:52.970Z,69.35
2022-08-20T07:07:04.763Z,68.60
2022-08-20T07:11:16.260Z,65.07
2022-08-20T07:15:27.769Z,62.04
2022-08-20T07:19:39.345Z,56.54
2022-08-20T07:23:53.026Z,53.31
2022-08-20T07:28:08.288Z,50.03
2022-08-20T07:32:36.925Z,48.16
2022-08-20T07:36:50.889Z,45.34
2022-08-20T07:41:13.096Z,44.06
2022-08-20T07:45:25.175Z,43.57
2022-08-20T07:49:40.569Z,43.07
2022-08-20T07:53:52.611Z,41.43
2022-08-20T07:58:09.730Z,41.06
2022-08-20T08:02:21.405Z,40.21
2022-08-20T08:06:33.111Z,38.76
2022-08-20T08:10:47.609Z,38.00
2022-08-20T08:15:16.939Z,36.44
2022-08-20T08:19:38.302Z,36.53
2022-08-20T08:23:50.243Z,35.68
2022-08-20T08:28:03.153Z,35.07
2022-08-20T08:32:14.891Z,34.89
2022-08-20T08:36:27.449Z,34.83
2022-08-20T08:40:39.368Z,33.43
2022-08-20T08:44:51.054Z,33.50
2022-08-20T08:49:02.902Z,32.78
2022-08-20T08:53:34.002Z,32.63
2022-08-20T08:57:47.512Z,33.16
2022-08-20T09:02:00.184Z,33.30
2022-08-20T09:06:18.831Z,32.62
2022-08-20T09:10:30.593Z,32.45
2022-08-20T09:14:42.366Z,31.22
2022-08-20T09:18:53.998Z,30.44
2022-08-20T09:23:06.767Z,28.84
2022-08-20T09:27:18.555Z,29.33
2022-08-20T09:31:30.304Z,29.96
2022-08-20T09:35:44.761Z,30.47
2022-08-20T09:39:57.057Z,31.47
2022-08-20T09:44:08.738Z,33.17
2022-08-20T09:48:20.507Z,31.72
2022-08-20T09:52:50.438Z,30.62
2022-08-20T09:57:07.382Z,29.25
2022-08-20T10:01:21.217Z,29.97
2022-08-20T10:05:32.922Z,30.75
2022-08-20T10:09:44.621Z,31.40
2022-08-20T10:13:56.304Z,29.78
2022-08-20T10:18:08.035Z,29.26
2022-08-20T10:22:19.647Z,27.16
2022-08-20T10:26:31.523Z,26.42
2022-08-20T10:30:45.094Z,26.81
2022-08-20T10:34:56.780Z,27.46
2022-08-20T10:39:08.699Z,27.62
2022-08-20T10:43:20.330Z,26.09
2022-08-20T10:47:32.972Z,26.25
2022-08-20T10:51:44.586Z,27.04
2022-08-20T10:55:59.296Z,26.64
2022-08-20T11:00:16.831Z,25.74
2022-08-20T11:04:28.415Z,25.78
2022-08-20T11:08:40.104Z,26.08
2022-08-20T11:12:52.321Z,26.23
2022-08-20T11:17:04.717Z,26.50
2022-08-20T11:21:16.290Z,26.30
2022-08-20T11:25:28.548Z,27.18
2022-08-20T11:29:40.159Z,26.59
2022-08-20T11:33:53.819Z,26.21
2022-08-20T11:38:05.511Z,27.22
2022-08-20T11:42:17.215Z,26.72
2022-08-20T11:46:29.026Z,26.04
2022-08-20T11:50:40.690Z,25.64
2022-08-20T11:54:54.809Z,24.54
2022-08-20T11:59:06.809Z,24.34
2022-08-20T12:03:18.505Z,25.06
2022-08-20T12:07:30.257Z,25.67
2022-08-20T12:11:41.874Z,26.17
2022-08-20T12:15:54.374Z,26.28
2022-08-20T12:20:10.779Z,25.38
2022-08-20T12:24:22.414Z,26.29
2022-08-20T12:28:34.045Z,26.37
2022-08-20T12:32:45.957Z,26.17
2022-08-20T12:37:05.597Z,26.93
2022-08-20T12:41:17.277Z,27.76
2022-08-20T12:45:30.118Z,28.38
2022-08-20T12:49:45.631Z,28.89
2022-08-20T12:53:57.311Z,28.70
2022-08-20T12:58:10.141Z,28.86
2022-08-20T13:02:21.745Z,28.16
2022-08-20T13:06:33.432Z,28.09
2022-08-20T13:10:45.869Z,27.76
2022-08-20T13:14:57.629Z,27.42
2022-08-20T13:19:09.257Z,27.12
2022-08-20T13:23:20.858Z,27.77
2022-08-20T13:27:32.546Z,27.95
2022-08-20T13:31:44.182Z,27.54
2022-08-20T13:35:56.990Z,27.59
2022-08-20T13:40:09.811Z,27.39
2022-08-20T13:44:21.498Z,27.70
2022-08-20T13:48:44.383Z,27.73
2022-08-20T13:52:56.456Z,28.54
2022-08-20T13:57:16.818Z,28.53
2022-08-20T14:01:28.466Z,28.68
2022-08-20T14:05:40.155Z,29.06
2022-08-20T14:09:54.697Z,29.89
2022-08-20T14:14:06.285Z,29.87
2022-08-20T14:18:18.242Z,30.40
2022-08-20T14:22:30.137Z,30.73
2022-08-20T14:26:41.768Z,30.97
2022-08-20T14:30:53.842Z,30.67
2022-08-20T14:35:06.290Z,30.11
2022-08-20T14:39:20.459Z,30.54
2022-08-20T14:43:32.388Z,31.22
2022-08-20T14:47:53.537Z,31.52
2022-08-20T14:52:06.499Z,31.64
2022-08-20T14:56:18.199Z,31.88
2022-08-20T15:00:30.858Z,32.50
2022-08-20T15:04:43.319Z,32.65
2022-08-20T15:08:54.921Z,32.54
2022-08-20T15:13:07.225Z,33.25
2022-08-20T15:17:24.857Z,33.48
2022-08-20T15:21:45.179Z,33.65
2022-08-20T15:25:57.370Z,33.95
2022-08-20T15:30:13.038Z,34.31
2022-08-20T15:34:24.675Z,34.84
2022-08-20T15:38:36.994Z,35.09
2022-08-20T15:42:48.674Z,35.66
2022-08-20T15:47:23.616Z,36.40
2022-08-20T15:51:43.563Z,36.25
2022-08-20T15:56:08.057Z,37.17
2022-08-20T16:00:26.875Z,38.06
2022-08-20T16:04:57.214Z,38.72
2022-08-20T16:09:38.108Z,39.18
2022-08-20T16:13:54.334Z,39.30
2022-08-20T16:18:16.455Z,39.71
2022-08-20T16:22:30.404Z,40.82
2022-08-20T16:27:02.440Z,40.65
2022-08-20T16:31:18.674Z,40.96
2022-08-20T16:35:35.828Z,41.36
2022-08-20T16:40:27.367Z,42.38
2022-08-20T16:44:42.966Z,42.24
2022-08-20T16:48:58.361Z,43.06
2022-08-20T16:53:17.311Z,43.02
2022-08-20T16:57:29.640Z,42.83
2022-08-20T17:01:41.346Z,43.36
2022-08-20T17:05:56.988Z,43.04
2022-08-20T17:10:16.488Z,43.38
2022-08-20T17:14:28.088Z,43.39
2022-08-20T17:18:53.889Z,43.54
2022-08-20T17:23:17.957Z,43.77
2022-08-20T17:27:32.489Z,44.04
2022-08-20T17:31:53.536Z,44.45
2022-08-20T17:36:26.326Z,44.70
2022-08-20T17:40:47.120Z,44.90
2022-08-20T17:45:23.050Z,45.52
2022-08-20T17:49:39.360Z,45.66
2022-08-20T17:54:27.917Z,45.75
2022-08-20T17:58:54.183Z,45.91
2022-08-20T18:03:24.877Z,46.39
2022-08-20T18:07:45.036Z,46.36
2022-08-20T18:12:06.897Z,46.46
2022-08-20T18:16:38.898Z,46.44
2022-08-20T18:21:15.373Z,47.13
2022-08-20T18:25:38.839Z,47.06
2022-08-20T18:29:56.888Z,47.34
2022-08-20T18:34:19.946Z,47.68
2022-08-20T18:38:34.584Z,47.74
2022-08-20T18:42:46.953Z,47.89
2022-08-20T18:47:03.579Z,48.22
2022-08-20T18:51:15.300Z,48.45
2022-08-20T18:55:40.315Z,48.74
2022-08-20T19:00:14.406Z,49.11
2022-08-20T19:04:33.647Z,48.93
2022-08-20T19:08:59.279Z,49.57
2022-08-20T19:13:18.850Z,49.74
2022-08-20T19:17:57.145Z,50.34
2022-08-20T19:22:12.261Z,50.48
2022-08-20T19:26:27.317Z,50.51
2022-08-20T19:30:41.378Z,50.62
2022-08-20T19:35:01.347Z,50.90
2022-08-20T19:39:17.198Z,51.00
2022-08-20T19:43:28.860Z,51.13
2022-08-20T19:48:15.108Z,51.54
2022-08-20T19:52:58.035Z,51.67
2022-08-20T19:57:11.073Z,51.67
2022-08-20T20:01:22.875Z,51.98
2022-08-20T20:05:34.497Z,52.36
2022-08-20T20:09:49.998Z,52.99
2022-08-20T20:14:10.548Z,53.24
2022-08-20T20:18:26.325Z,53.58
2022-08-20T20:22:50.622Z,53.92
2022-08-20T20:27:02.245Z,54.18
2022-08-20T20:31:21.496Z,54.43
2022-08-20T20:35:35.353Z,54.70
2022-08-20T20:39:47.105Z,54.89
2022-08-20T20:44:06.765Z,55.02
2022-08-20T20:48:23.325Z,55.15
2022-08-20T20:52:49.351Z,55.74
2022-08-20T20:57:04.274Z,56.03
2022-08-20T21:01:15.835Z,56.73
2022-08-20T21:05:38.869Z,56.94
2022-08-20T21:09:52.089Z,57.31
2022-08-20T21:14:03.689Z,57.86
2022-08-20T21:18:15.261Z,58.31
2022-08-20T21:22:26.849Z,58.47
2022-08-20T21:26:39.467Z,58.80
2022-08-20T21:30:52.206Z,59.28
2022-08-20T21:35:11.184Z,59.49
2022-08-20T21:39:22.722Z,59.70
2022-08-20T21:43:35.076Z,60.05
2022-08-20T21:47:48.952Z,60.52
2022-08-20T21:52:00.926Z,60.83
2022-08-20T21:56:12.554Z,60.77
2022-08-20T22:00:51.624Z,61.32
2022-08-20T22:05:03.376Z,61.50
2022-08-20T22:09:15.279Z,61.82
2022-08-20T22:13:32.857Z,61.82
2022-08-20T22:17:44.502Z,62.25
2022-08-20T22:21:56.863Z,62.47
2022-08-20T22:26:09.430Z,62.62
2022-08-20T22:30:21.383Z,63.22
2022-08-20T22:34:35.154Z,63.36
2022-08-20T22:38:47.820Z,63.66
2022-08-20T22:43:06.699Z,63.61
2022-08-20T22:47:24.783Z,63.75
2022-08-20T22:51:38.656Z,63.78
2022-08-20T22:55:51.474Z,64.28
2022-08-20T23:00:11.085Z,64.38
2022-08-20T23:04:29.333Z,64.47
2022-08-20T23:08:42.121Z,64.68
2022-08-20T23:12:54.345Z,64.88
2022-08-20T23:17:14.067Z,65.10
2022-08-20T23:21:25.826Z,65.21
2022-08-20T23:25:40.226Z,65.12
2022-08-20T23:29:51.841Z,65.54
2022-08-20T23:34:03.584Z,65.62
2022-08-20T23:38:15.533Z,65.74
2022-08-20T23:42:27.208Z,65.96
2022-08-20T23:46:39.521Z,65.98
2022-08-20T23:50:51.203Z,66.37
2022-08-20T23:55:03.245Z,66.61
2022-08-20T23:59:14.970Z,66.71
